sensor_id;sensor_type;location;lat;lon;timestamp;P1;durP1;ratioP1;P2;durP2;ratioP2
34489;SDS011;20730;49.372;7.324;2024-02-21T00:01:44;23.75;;;10.63;;
34489;SDS011;20730;49.372;7.324;2024-02-21T00:04:11;19.33;;;11.18;;
34489;SDS011;20730;49.372;7.324;2024-02-21T00:06:38;21.58;;;11.45;;
34489;SDS011;20730;49.372;7.324;2024-02-21T00:09:04;25.70;;;11.85;;
34489;SDS011;20730;49.372;7.324;2024-02-21T00:11:31;25.33;;;11.85;;
34489;SDS011;20730;49.372;7.324;2024-02-21T00:13:58;25.77;;;12.25;;
34489;SDS011;20730;49.372;7.324;2024-02-21T00:16:24;25.00;;;11.80;;
34489;SDS011;20730;49.372;7.324;2024-02-21T00:18:51;29.70;;;11.82;;
34489;SDS011;20730;49.372;7.324;2024-02-21T00:21:18;26.95;;;12.25;;
34489;SDS011;20730;49.372;7.324;2024-02-21T00:23:45;24.25;;;11.95;;
34489;SDS011;20730;49.372;7.324;2024-02-21T00:26:17;24.55;;;11.27;;
34489;SDS011;20730;49.372;7.324;2024-02-21T00:28:43;26.33;;;11.63;;
34489;SDS011;20730;49.372;7.324;2024-02-21T00:31:10;25.30;;;10.75;;
34489;SDS011;20730;49.372;7.324;2024-02-21T00:33:37;27.23;;;11.43;;
34489;SDS011;20730;49.372;7.324;2024-02-21T00:36:04;27.42;;;10.93;;
34489;SDS011;20730;49.372;7.324;2024-02-21T00:38:31;26.52;;;10.88;;
34489;SDS011;20730;49.372;7.324;2024-02-21T00:40:57;32.33;;;10.73;;
34489;SDS011;20730;49.372;7.324;2024-02-21T00:43:24;20.77;;;10.05;;
34489;SDS011;20730;49.372;7.324;2024-02-21T00:45:51;20.27;;;10.05;;
34489;SDS011;20730;49.372;7.324;2024-02-21T00:48:18;21.20;;;9.85;;
34489;SDS011;20730;49.372;7.324;2024-02-21T00:50:45;20.45;;;8.82;;
34489;SDS011;20730;49.372;7.324;2024-02-21T00:53:11;24.73;;;9.93;;
34489;SDS011;20730;49.372;7.324;2024-02-21T00:55:38;23.60;;;9.10;;
34489;SDS011;20730;49.372;7.324;2024-02-21T00:58:06;22.25;;;8.23;;
34489;SDS011;20730;49.372;7.324;2024-02-21T01:00:33;23.90;;;8.43;;
34489;SDS011;20730;49.372;7.324;2024-02-21T01:02:59;23.65;;;8.77;;
34489;SDS011;20730;49.372;7.324;2024-02-21T01:05:26;24.00;;;8.68;;
34489;SDS011;20730;49.372;7.324;2024-02-21T01:07:55;18.80;;;8.32;;
34489;SDS011;20730;49.372;7.324;2024-02-21T01:10:22;19.80;;;7.50;;
34489;SDS011;20730;49.372;7.324;2024-02-21T01:12:49;20.67;;;7.88;;
34489;SDS011;20730;49.372;7.324;2024-02-21T01:15:16;18.65;;;7.82;;
34489;SDS011;20730;49.372;7.324;2024-02-21T01:17:42;21.65;;;8.45;;
34489;SDS011;20730;49.372;7.324;2024-02-21T01:20:09;20.58;;;7.25;;
34489;SDS011;20730;49.372;7.324;2024-02-21T01:22:37;27.55;;;7.47;;
34489;SDS011;20730;49.372;7.324;2024-02-21T01:25:03;21.20;;;7.85;;
34489;SDS011;20730;49.372;7.324;2024-02-21T01:27:30;21.15;;;7.45;;
34489;SDS011;20730;49.372;7.324;2024-02-21T01:29:57;22.13;;;7.65;;
34489;SDS011;20730;49.372;7.324;2024-02-21T01:32:24;20.90;;;8.27;;
34489;SDS011;20730;49.372;7.324;2024-02-21T01:34:51;17.42;;;7.55;;
34489;SDS011;20730;49.372;7.324;2024-02-21T01:37:18;17.85;;;7.97;;
34489;SDS011;20730;49.372;7.324;2024-02-21T01:39:45;25.25;;;8.07;;
34489;SDS011;20730;49.372;7.324;2024-02-21T01:42:11;20.92;;;8.05;;
34489;SDS011;20730;49.372;7.324;2024-02-21T01:44:38;22.92;;;8.93;;
34489;SDS011;20730;49.372;7.324;2024-02-21T01:47:05;24.98;;;8.98;;
34489;SDS011;20730;49.372;7.324;2024-02-21T01:49:31;22.13;;;8.07;;
34489;SDS011;20730;49.372;7.324;2024-02-21T01:51:58;22.25;;;7.82;;
34489;SDS011;20730;49.372;7.324;2024-02-21T01:54:25;23.00;;;8.32;;
34489;SDS011;20730;49.372;7.324;2024-02-21T01:56:55;18.58;;;7.72;;
34489;SDS011;20730;49.372;7.324;2024-02-21T01:59:21;19.27;;;8.65;;
34489;SDS011;20730;49.372;7.324;2024-02-21T02:01:48;25.83;;;8.80;;
34489;SDS011;20730;49.372;7.324;2024-02-21T02:04:17;19.20;;;8.38;;
34489;SDS011;20730;49.372;7.324;2024-02-21T02:06:43;22.35;;;8.05;;
34489;SDS011;20730;49.372;7.324;2024-02-21T02:09:10;20.35;;;7.88;;
34489;SDS011;20730;49.372;7.324;2024-02-21T02:11:37;25.02;;;7.70;;
34489;SDS011;20730;49.372;7.324;2024-02-21T02:14:04;20.02;;;7.85;;
34489;SDS011;20730;49.372;7.324;2024-02-21T02:16:31;21.30;;;8.00;;
34489;SDS011;20730;49.372;7.324;2024-02-21T02:18:58;17.27;;;7.15;;
34489;SDS011;20730;49.372;7.324;2024-02-21T02:21:27;23.70;;;7.90;;
34489;SDS011;20730;49.372;7.324;2024-02-21T02:23:56;23.15;;;8.27;;
34489;SDS011;20730;49.372;7.324;2024-02-21T02:26:23;20.02;;;7.80;;
34489;SDS011;20730;49.372;7.324;2024-02-21T02:28:50;19.65;;;7.75;;
34489;SDS011;20730;49.372;7.324;2024-02-21T02:31:17;23.17;;;7.68;;
34489;SDS011;20730;49.372;7.324;2024-02-21T02:33:44;21.02;;;7.35;;
34489;SDS011;20730;49.372;7.324;2024-02-21T02:36:11;17.42;;;7.22;;
34489;SDS011;20730;49.372;7.324;2024-02-21T02:38:38;22.85;;;8.13;;
34489;SDS011;20730;49.372;7.324;2024-02-21T02:41:05;21.27;;;7.75;;
34489;SDS011;20730;49.372;7.324;2024-02-21T02:43:32;23.67;;;7.70;;
34489;SDS011;20730;49.372;7.324;2024-02-21T02:45:58;23.80;;;8.10;;
34489;SDS011;20730;49.372;7.324;2024-02-21T02:48:25;23.60;;;8.93;;
34489;SDS011;20730;49.372;7.324;2024-02-21T02:50:52;17.95;;;7.68;;
34489;SDS011;20730;49.372;7.324;2024-02-21T02:53:18;17.00;;;7.55;;
34489;SDS011;20730;49.372;7.324;2024-02-21T02:55:45;20.25;;;8.07;;
34489;SDS011;20730;49.372;7.324;2024-02-21T02:58:12;20.42;;;9.02;;
34489;SDS011;20730;49.372;7.324;2024-02-21T03:00:39;20.30;;;9.27;;
34489;SDS011;20730;49.372;7.324;2024-02-21T03:03:06;23.85;;;10.05;;
34489;SDS011;20730;49.372;7.324;2024-02-21T03:05:34;22.15;;;9.57;;
34489;SDS011;20730;49.372;7.324;2024-02-21T03:08:01;21.55;;;9.75;;
34489;SDS011;20730;49.372;7.324;2024-02-21T03:10:28;26.13;;;9.73;;
34489;SDS011;20730;49.372;7.324;2024-02-21T03:12:55;24.67;;;9.43;;
34489;SDS011;20730;49.372;7.324;2024-02-21T03:15:22;22.85;;;9.02;;
34489;SDS011;20730;49.372;7.324;2024-02-21T03:17:48;24.35;;;9.30;;
34489;SDS011;20730;49.372;7.324;2024-02-21T03:20:15;20.40;;;8.40;;
34489;SDS011;20730;49.372;7.324;2024-02-21T03:22:42;26.17;;;8.70;;
34489;SDS011;20730;49.372;7.324;2024-02-21T03:25:09;26.70;;;9.52;;
34489;SDS011;20730;49.372;7.324;2024-02-21T03:27:37;22.20;;;9.30;;
34489;SDS011;20730;49.372;7.324;2024-02-21T03:30:04;24.30;;;10.10;;
34489;SDS011;20730;49.372;7.324;2024-02-21T03:32:31;28.75;;;9.95;;
34489;SDS011;20730;49.372;7.324;2024-02-21T03:34:58;24.58;;;10.50;;
34489;SDS011;20730;49.372;7.324;2024-02-21T03:37:25;24.98;;;9.48;;
34489;SDS011;20730;49.372;7.324;2024-02-21T03:39:51;24.70;;;9.27;;
34489;SDS011;20730;49.372;7.324;2024-02-21T03:42:18;25.20;;;10.02;;
34489;SDS011;20730;49.372;7.324;2024-02-21T03:44:45;21.20;;;9.10;;
34489;SDS011;20730;49.372;7.324;2024-02-21T03:47:12;22.33;;;8.68;;
34489;SDS011;20730;49.372;7.324;2024-02-21T03:49:38;17.45;;;7.57;;
34489;SDS011;20730;49.372;7.324;2024-02-21T03:52:06;19.50;;;7.30;;
34489;SDS011;20730;49.372;7.324;2024-02-21T03:54:32;20.00;;;6.45;;
34489;SDS011;20730;49.372;7.324;2024-02-21T03:56:59;17.60;;;6.70;;
34489;SDS011;20730;49.372;7.324;2024-02-21T03:59:26;18.77;;;6.13;;
34489;SDS011;20730;49.372;7.324;2024-02-21T04:01:53;16.35;;;6.20;;
34489;SDS011;20730;49.372;7.324;2024-02-21T04:04:20;14.38;;;6.45;;
34489;SDS011;20730;49.372;7.324;2024-02-21T04:06:47;19.48;;;6.20;;
34489;SDS011;20730;49.372;7.324;2024-02-21T04:09:17;21.83;;;6.72;;
34489;SDS011;20730;49.372;7.324;2024-02-21T04:11:44;14.13;;;6.00;;
34489;SDS011;20730;49.372;7.324;2024-02-21T04:14:11;10.98;;;4.88;;
34489;SDS011;20730;49.372;7.324;2024-02-21T04:16:38;18.80;;;5.03;;
34489;SDS011;20730;49.372;7.324;2024-02-21T04:19:06;13.43;;;4.38;;
34489;SDS011;20730;49.372;7.324;2024-02-21T04:21:33;15.85;;;5.00;;
34489;SDS011;20730;49.372;7.324;2024-02-21T04:24:00;16.67;;;5.80;;
34489;SDS011;20730;49.372;7.324;2024-02-21T04:26:28;18.17;;;4.90;;
34489;SDS011;20730;49.372;7.324;2024-02-21T04:28:54;12.70;;;4.10;;
34489;SDS011;20730;49.372;7.324;2024-02-21T04:31:21;15.63;;;4.55;;
34489;SDS011;20730;49.372;7.324;2024-02-21T04:33:48;18.08;;;4.53;;
34489;SDS011;20730;49.372;7.324;2024-02-21T04:36:15;14.48;;;4.53;;
34489;SDS011;20730;49.372;7.324;2024-02-21T04:38:42;13.88;;;4.10;;
34489;SDS011;20730;49.372;7.324;2024-02-21T04:41:08;18.80;;;4.35;;
34489;SDS011;20730;49.372;7.324;2024-02-21T04:43:35;14.80;;;4.40;;
34489;SDS011;20730;49.372;7.324;2024-02-21T04:46:02;14.38;;;4.13;;
34489;SDS011;20730;49.372;7.324;2024-02-21T04:48:29;10.60;;;3.72;;
34489;SDS011;20730;49.372;7.324;2024-02-21T04:50:56;15.23;;;4.28;;
34489;SDS011;20730;49.372;7.324;2024-02-21T04:53:23;14.32;;;4.53;;
34489;SDS011;20730;49.372;7.324;2024-02-21T04:55:49;14.38;;;4.35;;
34489;SDS011;20730;49.372;7.324;2024-02-21T04:58:16;12.55;;;4.40;;
34489;SDS011;20730;49.372;7.324;2024-02-21T05:00:43;11.50;;;4.90;;
34489;SDS011;20730;49.372;7.324;2024-02-21T05:03:09;13.93;;;4.93;;
34489;SDS011;20730;49.372;7.324;2024-02-21T05:05:37;14.82;;;4.68;;
34489;SDS011;20730;49.372;7.324;2024-02-21T05:08:04;11.90;;;4.15;;
34489;SDS011;20730;49.372;7.324;2024-02-21T05:10:31;17.13;;;4.70;;
34489;SDS011;20730;49.372;7.324;2024-02-21T05:12:58;9.77;;;4.10;;
34489;SDS011;20730;49.372;7.324;2024-02-21T05:15:25;11.20;;;4.03;;
34489;SDS011;20730;49.372;7.324;2024-02-21T05:17:52;14.43;;;4.07;;
34489;SDS011;20730;49.372;7.324;2024-02-21T05:20:19;18.90;;;4.85;;
34489;SDS011;20730;49.372;7.324;2024-02-21T05:22:46;13.85;;;3.53;;
34489;SDS011;20730;49.372;7.324;2024-02-21T05:25:12;13.05;;;4.13;;
34489;SDS011;20730;49.372;7.324;2024-02-21T05:27:39;13.35;;;4.47;;
34489;SDS011;20730;49.372;7.324;2024-02-21T05:30:06;14.63;;;4.43;;
34489;SDS011;20730;49.372;7.324;2024-02-21T05:32:33;14.63;;;4.22;;
34489;SDS011;20730;49.372;7.324;2024-02-21T05:35:00;17.48;;;5.20;;
34489;SDS011;20730;49.372;7.324;2024-02-21T05:37:27;13.02;;;4.70;;
34489;SDS011;20730;49.372;7.324;2024-02-21T05:39:54;15.63;;;5.10;;
34489;SDS011;20730;49.372;7.324;2024-02-21T05:42:20;13.45;;;4.78;;
34489;SDS011;20730;49.372;7.324;2024-02-21T05:44:47;12.80;;;5.00;;
34489;SDS011;20730;49.372;7.324;2024-02-21T05:47:14;11.77;;;4.82;;
34489;SDS011;20730;49.372;7.324;2024-02-21T05:49:42;16.05;;;5.05;;
34489;SDS011;20730;49.372;7.324;2024-02-21T05:52:08;13.60;;;4.95;;
34489;SDS011;20730;49.372;7.324;2024-02-21T05:54:37;12.63;;;4.85;;
34489;SDS011;20730;49.372;7.324;2024-02-21T05:57:05;15.40;;;5.17;;
34489;SDS011;20730;49.372;7.324;2024-02-21T05:59:32;17.55;;;5.18;;
34489;SDS011;20730;49.372;7.324;2024-02-21T06:01:59;16.27;;;5.32;;
34489;SDS011;20730;49.372;7.324;2024-02-21T06:04:26;18.45;;;5.70;;
34489;SDS011;20730;49.372;7.324;2024-02-21T06:06:53;18.55;;;5.03;;
34489;SDS011;20730;49.372;7.324;2024-02-21T06:09:20;14.57;;;4.85;;
34489;SDS011;20730;49.372;7.324;2024-02-21T06:11:47;12.85;;;5.05;;
34489;SDS011;20730;49.372;7.324;2024-02-21T06:14:15;19.08;;;5.22;;
34489;SDS011;20730;49.372;7.324;2024-02-21T06:16:43;13.82;;;5.25;;
34489;SDS011;20730;49.372;7.324;2024-02-21T06:19:10;16.42;;;5.47;;
34489;SDS011;20730;49.372;7.324;2024-02-21T06:21:37;14.40;;;5.40;;
34489;SDS011;20730;49.372;7.324;2024-02-21T06:24:04;13.55;;;5.57;;
34489;SDS011;20730;49.372;7.324;2024-02-21T06:26:31;12.00;;;4.78;;
34489;SDS011;20730;49.372;7.324;2024-02-21T06:28:57;19.60;;;5.43;;
34489;SDS011;20730;49.372;7.324;2024-02-21T06:31:27;14.63;;;4.95;;
34489;SDS011;20730;49.372;7.324;2024-02-21T06:33:54;11.60;;;4.60;;
34489;SDS011;20730;49.372;7.324;2024-02-21T06:36:21;14.52;;;5.20;;
34489;SDS011;20730;49.372;7.324;2024-02-21T06:38:48;17.27;;;4.85;;
34489;SDS011;20730;49.372;7.324;2024-02-21T06:41:15;13.38;;;5.40;;
34489;SDS011;20730;49.372;7.324;2024-02-21T06:43:43;15.38;;;4.45;;
34489;SDS011;20730;49.372;7.324;2024-02-21T06:46:09;15.75;;;5.70;;
34489;SDS011;20730;49.372;7.324;2024-02-21T06:48:36;15.05;;;5.07;;
34489;SDS011;20730;49.372;7.324;2024-02-21T06:51:03;14.95;;;5.43;;
34489;SDS011;20730;49.372;7.324;2024-02-21T06:53:30;15.15;;;4.97;;
34489;SDS011;20730;49.372;7.324;2024-02-21T06:55:57;16.23;;;5.15;;
34489;SDS011;20730;49.372;7.324;2024-02-21T06:58:24;11.15;;;5.05;;
34489;SDS011;20730;49.372;7.324;2024-02-21T07:00:51;14.63;;;5.05;;
34489;SDS011;20730;49.372;7.324;2024-02-21T07:03:18;18.63;;;5.47;;
34489;SDS011;20730;49.372;7.324;2024-02-21T07:05:44;13.23;;;4.45;;
34489;SDS011;20730;49.372;7.324;2024-02-21T07:08:11;11.38;;;5.07;;
34489;SDS011;20730;49.372;7.324;2024-02-21T07:10:38;15.65;;;5.13;;
34489;SDS011;20730;49.372;7.324;2024-02-21T07:13:05;13.05;;;4.95;;
34489;SDS011;20730;49.372;7.324;2024-02-21T07:15:32;15.88;;;4.97;;
34489;SDS011;20730;49.372;7.324;2024-02-21T07:17:59;15.25;;;4.82;;
34489;SDS011;20730;49.372;7.324;2024-02-21T07:20:26;16.85;;;5.38;;
34489;SDS011;20730;49.372;7.324;2024-02-21T07:22:53;17.85;;;5.03;;
34489;SDS011;20730;49.372;7.324;2024-02-21T07:25:20;14.15;;;5.78;;
34489;SDS011;20730;49.372;7.324;2024-02-21T07:27:46;13.25;;;5.43;;
34489;SDS011;20730;49.372;7.324;2024-02-21T07:30:13;14.27;;;5.00;;
34489;SDS011;20730;49.372;7.324;2024-02-21T07:32:43;15.00;;;5.10;;
34489;SDS011;20730;49.372;7.324;2024-02-21T07:35:10;18.00;;;5.82;;
34489;SDS011;20730;49.372;7.324;2024-02-21T07:37:38;15.98;;;5.47;;
34489;SDS011;20730;49.372;7.324;2024-02-21T07:40:14;14.93;;;5.13;;
34489;SDS011;20730;49.372;7.324;2024-02-21T07:42:42;13.85;;;4.95;;
34489;SDS011;20730;49.372;7.324;2024-02-21T07:45:14;17.50;;;5.30;;
34489;SDS011;20730;49.372;7.324;2024-02-21T07:47:40;15.00;;;4.97;;
34489;SDS011;20730;49.372;7.324;2024-02-21T07:50:07;19.35;;;5.15;;
34489;SDS011;20730;49.372;7.324;2024-02-21T07:52:34;18.77;;;5.57;;
34489;SDS011;20730;49.372;7.324;2024-02-21T07:55:01;17.67;;;4.85;;
34489;SDS011;20730;49.372;7.324;2024-02-21T07:57:28;15.52;;;5.50;;
34489;SDS011;20730;49.372;7.324;2024-02-21T07:59:54;13.30;;;4.72;;
34489;SDS011;20730;49.372;7.324;2024-02-21T08:02:21;16.20;;;5.00;;
34489;SDS011;20730;49.372;7.324;2024-02-21T08:04:48;12.93;;;4.70;;
34489;SDS011;20730;49.372;7.324;2024-02-21T08:07:14;14.38;;;5.00;;
34489;SDS011;20730;49.372;7.324;2024-02-21T08:09:41;12.75;;;4.65;;
34489;SDS011;20730;49.372;7.324;2024-02-21T08:12:08;15.15;;;4.70;;
34489;SDS011;20730;49.372;7.324;2024-02-21T08:14:35;11.35;;;4.10;;
34489;SDS011;20730;49.372;7.324;2024-02-21T08:17:02;11.43;;;3.92;;
34489;SDS011;20730;49.372;7.324;2024-02-21T08:19:30;12.60;;;4.38;;
34489;SDS011;20730;49.372;7.324;2024-02-21T08:21:57;11.07;;;4.28;;
34489;SDS011;20730;49.372;7.324;2024-02-21T08:24:24;17.35;;;4.57;;
34489;SDS011;20730;49.372;7.324;2024-02-21T08:26:51;12.73;;;4.10;;
34489;SDS011;20730;49.372;7.324;2024-02-21T08:29:17;15.73;;;4.28;;
34489;SDS011;20730;49.372;7.324;2024-02-21T08:31:44;13.60;;;4.35;;
34489;SDS011;20730;49.372;7.324;2024-02-21T08:34:11;17.25;;;4.63;;
34489;SDS011;20730;49.372;7.324;2024-02-21T08:36:40;15.43;;;4.80;;
34489;SDS011;20730;49.372;7.324;2024-02-21T08:39:06;12.93;;;4.35;;
34489;SDS011;20730;49.372;7.324;2024-02-21T08:41:36;13.10;;;4.05;;
34489;SDS011;20730;49.372;7.324;2024-02-21T08:44:24;17.17;;;5.22;;
34489;SDS011;20730;49.372;7.324;2024-02-21T08:46:53;18.73;;;4.90;;
34489;SDS011;20730;49.372;7.324;2024-02-21T08:49:20;16.77;;;4.60;;
34489;SDS011;20730;49.372;7.324;2024-02-21T08:51:47;16.15;;;4.88;;
34489;SDS011;20730;49.372;7.324;2024-02-21T08:54:14;21.63;;;5.35;;
34489;SDS011;20730;49.372;7.324;2024-02-21T08:56:40;17.63;;;5.28;;
34489;SDS011;20730;49.372;7.324;2024-02-21T08:59:07;14.63;;;4.97;;
34489;SDS011;20730;49.372;7.324;2024-02-21T09:01:34;13.10;;;4.97;;
34489;SDS011;20730;49.372;7.324;2024-02-21T09:04:02;14.65;;;4.82;;
34489;SDS011;20730;49.372;7.324;2024-02-21T09:06:29;17.60;;;5.47;;
34489;SDS011;20730;49.372;7.324;2024-02-21T09:08:56;15.85;;;4.63;;
34489;SDS011;20730;49.372;7.324;2024-02-21T09:11:24;17.10;;;5.15;;
34489;SDS011;20730;49.372;7.324;2024-02-21T09:13:51;15.45;;;4.80;;
34489;SDS011;20730;49.372;7.324;2024-02-21T09:16:18;20.20;;;5.07;;
34489;SDS011;20730;49.372;7.324;2024-02-21T09:18:45;17.95;;;4.65;;
34489;SDS011;20730;49.372;7.324;2024-02-21T09:21:13;16.52;;;5.60;;
34489;SDS011;20730;49.372;7.324;2024-02-21T09:23:39;14.15;;;5.15;;
34489;SDS011;20730;49.372;7.324;2024-02-21T09:26:06;14.57;;;4.95;;
34489;SDS011;20730;49.372;7.324;2024-02-21T09:28:33;13.85;;;5.10;;
34489;SDS011;20730;49.372;7.324;2024-02-21T09:31:01;17.10;;;5.38;;
34489;SDS011;20730;49.372;7.324;2024-02-21T09:33:28;14.20;;;5.07;;
34489;SDS011;20730;49.372;7.324;2024-02-21T09:35:58;15.18;;;5.78;;
34489;SDS011;20730;49.372;7.324;2024-02-21T09:38:25;16.00;;;6.00;;
34489;SDS011;20730;49.372;7.324;2024-02-21T09:40:54;12.77;;;4.97;;
34489;SDS011;20730;49.372;7.324;2024-02-21T09:43:42;16.77;;;5.45;;
34489;SDS011;20730;49.372;7.324;2024-02-21T09:46:11;15.15;;;5.63;;
34489;SDS011;20730;49.372;7.324;2024-02-21T09:51:15;14.45;;;5.70;;
34489;SDS011;20730;49.372;7.324;2024-02-21T09:53:43;14.00;;;5.65;;
34489;SDS011;20730;49.372;7.324;2024-02-21T09:56:24;14.73;;;5.35;;
34489;SDS011;20730;49.372;7.324;2024-02-21T09:58:50;16.15;;;5.45;;
34489;SDS011;20730;49.372;7.324;2024-02-21T10:01:17;18.85;;;5.88;;
34489;SDS011;20730;49.372;7.324;2024-02-21T10:03:59;15.43;;;5.43;;
34489;SDS011;20730;49.372;7.324;2024-02-21T10:06:26;16.17;;;5.05;;
34489;SDS011;20730;49.372;7.324;2024-02-21T10:08:53;13.80;;;5.00;;
34489;SDS011;20730;49.372;7.324;2024-02-21T10:11:24;14.35;;;5.95;;
34489;SDS011;20730;49.372;7.324;2024-02-21T10:13:51;14.77;;;5.55;;
34489;SDS011;20730;49.372;7.324;2024-02-21T10:16:28;18.48;;;5.82;;
34489;SDS011;20730;49.372;7.324;2024-02-21T10:18:55;13.68;;;4.88;;
34489;SDS011;20730;49.372;7.324;2024-02-21T10:21:22;16.73;;;5.30;;
34489;SDS011;20730;49.372;7.324;2024-02-21T10:23:49;15.90;;;4.95;;
34489;SDS011;20730;49.372;7.324;2024-02-21T10:26:17;18.70;;;5.10;;
34489;SDS011;20730;49.372;7.324;2024-02-21T10:28:46;13.38;;;4.82;;
34489;SDS011;20730;49.372;7.324;2024-02-21T10:31:26;14.45;;;4.53;;
34489;SDS011;20730;49.372;7.324;2024-02-21T10:33:55;17.17;;;5.50;;
34489;SDS011;20730;49.372;7.324;2024-02-21T10:36:25;9.35;;;4.28;;
34489;SDS011;20730;49.372;7.324;2024-02-21T10:38:53;14.10;;;4.70;;
34489;SDS011;20730;49.372;7.324;2024-02-21T10:41:21;15.82;;;4.93;;
34489;SDS011;20730;49.372;7.324;2024-02-21T10:43:52;10.75;;;4.35;;
34489;SDS011;20730;49.372;7.324;2024-02-21T10:46:23;11.80;;;4.38;;
34489;SDS011;20730;49.372;7.324;2024-02-21T10:48:59;12.93;;;4.50;;
34489;SDS011;20730;49.372;7.324;2024-02-21T10:51:30;10.10;;;4.15;;
34489;SDS011;20730;49.372;7.324;2024-02-21T10:56:50;14.38;;;4.05;;
34489;SDS011;20730;49.372;7.324;2024-02-21T10:59:17;11.50;;;3.38;;
34489;SDS011;20730;49.372;7.324;2024-02-21T11:01:44;8.90;;;3.88;;
34489;SDS011;20730;49.372;7.324;2024-02-21T11:04:11;10.73;;;4.22;;
34489;SDS011;20730;49.372;7.324;2024-02-21T11:06:40;9.73;;;3.55;;
34489;SDS011;20730;49.372;7.324;2024-02-21T11:09:07;10.32;;;3.83;;
34489;SDS011;20730;49.372;7.324;2024-02-21T11:11:38;10.35;;;3.25;;
34489;SDS011;20730;49.372;7.324;2024-02-21T11:14:10;12.88;;;3.78;;
34489;SDS011;20730;49.372;7.324;2024-02-21T11:16:43;10.85;;;3.60;;
34489;SDS011;20730;49.372;7.324;2024-02-21T11:19:20;15.63;;;3.72;;
34489;SDS011;20730;49.372;7.324;2024-02-21T11:21:49;12.25;;;4.18;;
34489;SDS011;20730;49.372;7.324;2024-02-21T11:24:26;12.38;;;3.50;;
34489;SDS011;20730;49.372;7.324;2024-02-21T11:26:55;8.13;;;3.10;;
34489;SDS011;20730;49.372;7.324;2024-02-21T11:29:44;11.40;;;3.80;;
34489;SDS011;20730;49.372;7.324;2024-02-21T11:32:15;9.55;;;3.17;;
34489;SDS011;20730;49.372;7.324;2024-02-21T11:34:53;11.20;;;3.20;;
34489;SDS011;20730;49.372;7.324;2024-02-21T11:37:32;13.50;;;3.33;;
34489;SDS011;20730;49.372;7.324;2024-02-21T11:40:01;11.05;;;3.50;;
34489;SDS011;20730;49.372;7.324;2024-02-21T11:42:29;10.55;;;3.50;;
34489;SDS011;20730;49.372;7.324;2024-02-21T11:44:57;11.70;;;3.40;;
34489;SDS011;20730;49.372;7.324;2024-02-21T11:47:27;14.15;;;3.10;;
34489;SDS011;20730;49.372;7.324;2024-02-21T11:49:55;9.23;;;3.15;;
34489;SDS011;20730;49.372;7.324;2024-02-21T11:52:22;9.88;;;2.83;;
34489;SDS011;20730;49.372;7.324;2024-02-21T11:57:20;10.35;;;3.35;;
34489;SDS011;20730;49.372;7.324;2024-02-21T11:59:46;10.52;;;3.00;;
34489;SDS011;20730;49.372;7.324;2024-02-21T12:02:14;14.43;;;3.05;;
34489;SDS011;20730;49.372;7.324;2024-02-21T12:04:42;11.50;;;2.85;;
34489;SDS011;20730;49.372;7.324;2024-02-21T12:07:09;13.48;;;3.05;;
34489;SDS011;20730;49.372;7.324;2024-02-21T12:09:35;8.77;;;3.03;;
34489;SDS011;20730;49.372;7.324;2024-02-21T12:12:03;10.68;;;2.85;;
34489;SDS011;20730;49.372;7.324;2024-02-21T12:14:32;7.93;;;2.25;;
34489;SDS011;20730;49.372;7.324;2024-02-21T12:17:00;9.55;;;3.30;;
34489;SDS011;20730;49.372;7.324;2024-02-21T12:19:30;10.52;;;3.20;;
34489;SDS011;20730;49.372;7.324;2024-02-21T12:22:01;8.88;;;2.50;;
34489;SDS011;20730;49.372;7.324;2024-02-21T12:24:32;10.02;;;2.50;;
34489;SDS011;20730;49.372;7.324;2024-02-21T12:26:59;9.95;;;2.75;;
34489;SDS011;20730;49.372;7.324;2024-02-21T12:29:29;6.05;;;2.70;;
34489;SDS011;20730;49.372;7.324;2024-02-21T12:31:56;10.60;;;2.80;;
34489;SDS011;20730;49.372;7.324;2024-02-21T12:34:23;11.25;;;2.90;;
34489;SDS011;20730;49.372;7.324;2024-02-21T12:37:10;9.98;;;2.70;;
34489;SDS011;20730;49.372;7.324;2024-02-21T12:39:38;8.13;;;2.80;;
34489;SDS011;20730;49.372;7.324;2024-02-21T12:42:05;9.05;;;2.95;;
34489;SDS011;20730;49.372;7.324;2024-02-21T12:44:31;8.52;;;2.85;;
34489;SDS011;20730;49.372;7.324;2024-02-21T12:46:58;8.77;;;2.65;;
34489;SDS011;20730;49.372;7.324;2024-02-21T12:49:25;7.50;;;2.83;;
34489;SDS011;20730;49.372;7.324;2024-02-21T12:51:54;10.60;;;3.00;;
34489;SDS011;20730;49.372;7.324;2024-02-21T12:54:21;7.63;;;2.80;;
34489;SDS011;20730;49.372;7.324;2024-02-21T12:56:48;9.15;;;2.88;;
34489;SDS011;20730;49.372;7.324;2024-02-21T12:59:16;12.35;;;2.40;;
34489;SDS011;20730;49.372;7.324;2024-02-21T13:01:43;8.82;;;2.70;;
34489;SDS011;20730;49.372;7.324;2024-02-21T13:04:10;9.13;;;2.92;;
34489;SDS011;20730;49.372;7.324;2024-02-21T13:06:38;7.18;;;2.40;;
34489;SDS011;20730;49.372;7.324;2024-02-21T13:09:05;12.38;;;2.88;;
34489;SDS011;20730;49.372;7.324;2024-02-21T13:11:34;8.98;;;2.60;;
34489;SDS011;20730;49.372;7.324;2024-02-21T13:14:01;9.63;;;2.72;;
34489;SDS011;20730;49.372;7.324;2024-02-21T13:16:28;8.85;;;2.65;;
34489;SDS011;20730;49.372;7.324;2024-02-21T13:18:55;8.05;;;2.70;;
34489;SDS011;20730;49.372;7.324;2024-02-21T13:21:22;8.88;;;2.67;;
34489;SDS011;20730;49.372;7.324;2024-02-21T13:23:49;8.98;;;2.90;;
34489;SDS011;20730;49.372;7.324;2024-02-21T13:26:16;7.82;;;2.80;;
34489;SDS011;20730;49.372;7.324;2024-02-21T13:28:42;8.63;;;2.78;;
34489;SDS011;20730;49.372;7.324;2024-02-21T13:31:11;8.27;;;2.90;;
34489;SDS011;20730;49.372;7.324;2024-02-21T13:33:38;9.70;;;3.22;;
34489;SDS011;20730;49.372;7.324;2024-02-21T13:36:05;5.90;;;2.80;;
34489;SDS011;20730;49.372;7.324;2024-02-21T13:38:32;7.65;;;2.78;;
34489;SDS011;20730;49.372;7.324;2024-02-21T13:40:59;8.68;;;2.42;;
34489;SDS011;20730;49.372;7.324;2024-02-21T13:43:27;9.63;;;2.75;;
34489;SDS011;20730;49.372;7.324;2024-02-21T13:45:57;9.15;;;2.85;;
34489;SDS011;20730;49.372;7.324;2024-02-21T13:48:25;7.65;;;2.67;;
34489;SDS011;20730;49.372;7.324;2024-02-21T13:50:53;9.80;;;2.67;;
34489;SDS011;20730;49.372;7.324;2024-02-21T13:53:20;8.15;;;2.45;;
34489;SDS011;20730;49.372;7.324;2024-02-21T13:55:47;9.23;;;2.65;;
34489;SDS011;20730;49.372;7.324;2024-02-21T13:58:15;10.43;;;2.65;;
34489;SDS011;20730;49.372;7.324;2024-02-21T14:00:42;8.68;;;2.80;;
34489;SDS011;20730;49.372;7.324;2024-02-21T14:03:09;7.50;;;2.70;;
34489;SDS011;20730;49.372;7.324;2024-02-21T14:05:36;7.07;;;2.33;;
34489;SDS011;20730;49.372;7.324;2024-02-21T14:08:06;8.30;;;2.55;;
34489;SDS011;20730;49.372;7.324;2024-02-21T14:10:33;9.18;;;2.72;;
34489;SDS011;20730;49.372;7.324;2024-02-21T14:13:00;6.88;;;2.58;;
34489;SDS011;20730;49.372;7.324;2024-02-21T14:15:27;13.05;;;3.15;;
34489;SDS011;20730;49.372;7.324;2024-02-21T14:17:54;9.27;;;2.70;;
34489;SDS011;20730;49.372;7.324;2024-02-21T14:20:22;7.25;;;2.20;;
34489;SDS011;20730;49.372;7.324;2024-02-21T14:22:49;7.30;;;2.38;;
34489;SDS011;20730;49.372;7.324;2024-02-21T14:25:16;10.52;;;3.08;;
34489;SDS011;20730;49.372;7.324;2024-02-21T14:27:42;7.50;;;2.75;;
34489;SDS011;20730;49.372;7.324;2024-02-21T14:30:10;6.53;;;2.65;;
34489;SDS011;20730;49.372;7.324;2024-02-21T14:32:38;7.68;;;2.78;;
34489;SDS011;20730;49.372;7.324;2024-02-21T14:35:06;10.95;;;3.45;;
34489;SDS011;20730;49.372;7.324;2024-02-21T14:37:33;14.40;;;5.15;;
34489;SDS011;20730;49.372;7.324;2024-02-21T14:40:00;10.77;;;2.70;;
34489;SDS011;20730;49.372;7.324;2024-02-21T14:42:27;11.40;;;3.10;;
34489;SDS011;20730;49.372;7.324;2024-02-21T14:44:54;8.68;;;2.70;;
34489;SDS011;20730;49.372;7.324;2024-02-21T14:47:31;8.48;;;2.53;;